createdAt,value
2023-05-16T00:00:27.042Z,97161.84
2023-05-16T00:02:55.228Z,97166.34
2023-05-16T00:05:24.679Z,97187.22
2023-05-16T00:07:52.503Z,97197.28
2023-05-16T00:10:20.461Z,97191.53
2023-05-16T00:12:51.712Z,97199.84
2023-05-16T00:15:20.506Z,97220.66
2023-05-16T00:17:49.706Z,97220.97
2023-05-16T00:20:19.169Z,97220.94
2023-05-16T00:22:48.452Z,97218.91
2023-05-16T00:25:16.459Z,97222.50
2023-05-16T00:27:44.309Z,97241.41
2023-05-16T00:30:12.539Z,97245.41
2023-05-16T00:32:40.512Z,97252.16
2023-05-16T00:35:10.741Z,97250.22
2023-05-16T00:37:38.817Z,97225.91
2023-05-16T00:40:08.834Z,97249.16
2023-05-16T00:42:37.244Z,97265.00
2023-05-16T00:45:08.768Z,97244.56
2023-05-16T00:47:36.856Z,97257.88
2023-05-16T00:50:05.776Z,97267.56
2023-05-16T00:52:34.091Z,97244.41
2023-05-16T00:55:04.037Z,97261.03
2023-05-16T00:57:33.350Z,97258.13
2023-05-16T01:00:01.249Z,97276.22
2023-05-16T01:02:29.437Z,97250.81
2023-05-16T01:04:57.325Z,97253.84
2023-05-16T01:07:25.148Z,97253.94
2023-05-16T01:09:53.051Z,97256.13
2023-05-16T01:12:24.711Z,97247.66
2023-05-16T01:14:56.644Z,97246.00
2023-05-16T01:17:25.069Z,97242.75
2023-05-16T01:19:56.519Z,97224.59
2023-05-16T01:22:29.800Z,97215.91
2023-05-16T01:25:02.102Z,97218.09
2023-05-16T01:27:31.344Z,97215.56
2023-05-16T01:29:59.141Z,97229.75
2023-05-16T01:32:27.088Z,97250.16
2023-05-16T01:34:54.987Z,97257.34
2023-05-16T01:37:25.328Z,97270.84
2023-05-16T01:39:54.006Z,97271.00
2023-05-16T01:42:22.374Z,97296.59
2023-05-16T01:44:53.617Z,97300.34
2023-05-16T01:47:21.769Z,97304.53
2023-05-16T01:49:51.823Z,97315.03
2023-05-16T01:52:20.789Z,97332.72
2023-05-16T01:54:49.105Z,97343.66
2023-05-16T01:57:17.028Z,97344.41
2023-05-16T01:59:45.906Z,97347.78
2023-05-16T02:02:15.245Z,97357.41
2023-05-16T02:04:43.159Z,97365.94
2023-05-16T02:07:11.250Z,97386.41
2023-05-16T02:09:39.100Z,97405.22
2023-05-16T02:12:10.786Z,97399.69
2023-05-16T02:14:38.696Z,97399.91
2023-05-16T02:17:07.793Z,97388.22
2023-05-16T02:19:37.079Z,97393.59
2023-05-16T02:22:04.947Z,97386.06
2023-05-16T02:24:34.417Z,97383.41
2023-05-16T02:27:02.660Z,97376.00
2023-05-16T02:29:30.694Z,97377.81
2023-05-16T02:31:58.540Z,97374.34
2023-05-16T02:34:26.392Z,97360.72
2023-05-16T02:36:55.747Z,97344.56
2023-05-16T02:39:23.634Z,97334.69
2023-05-16T02:41:52.465Z,97356.25
2023-05-16T02:44:20.404Z,97380.56
2023-05-16T02:46:48.315Z,97402.88
2023-05-16T02:49:17.200Z,97425.22
2023-05-16T02:51:46.049Z,97415.53
2023-05-16T02:54:15.289Z,97398.88
2023-05-16T02:56:43.061Z,97408.56
2023-05-16T02:59:10.856Z,97413.25
2023-05-16T03:01:38.724Z,97393.84
2023-05-16T03:04:06.635Z,97402.78
2023-05-16T03:06:34.578Z,97420.19
2023-05-16T03:09:02.519Z,97439.53
2023-05-16T03:11:31.727Z,97453.91
2023-05-16T03:14:01.773Z,97485.63
2023-05-16T03:16:29.904Z,97499.78
2023-05-16T03:18:58.409Z,97502.41
2023-05-16T03:21:26.261Z,97516.59
2023-05-16T03:23:55.249Z,97488.63
2023-05-16T03:26:23.764Z,97493.91
2023-05-16T03:28:53.993Z,97462.38
2023-05-16T03:31:21.866Z,97447.00
2023-05-16T03:33:49.775Z,97472.94
2023-05-16T03:36:17.686Z,97497.66
2023-05-16T03:38:45.560Z,97471.94
2023-05-16T03:41:13.372Z,97483.94
2023-05-16T03:43:41.411Z,97506.41
2023-05-16T03:46:10.720Z,97517.31
2023-05-16T03:48:38.515Z,97508.19
2023-05-16T03:51:06.562Z,97494.28
2023-05-16T03:53:34.361Z,97452.78
2023-05-16T03:56:02.183Z,97449.03
2023-05-16T03:58:30.134Z,97482.53
2023-05-16T04:00:57.954Z,97492.94
2023-05-16T04:03:28.862Z,97484.41
2023-05-16T04:05:56.988Z,97476.19
2023-05-16T04:08:24.803Z,97457.09
2023-05-16T04:10:52.647Z,97467.03
2023-05-16T04:13:20.445Z,97500.06
2023-05-16T04:15:48.353Z,97515.59
2023-05-16T04:18:16.275Z,97528.34
2023-05-16T04:20:47.677Z,97512.06
2023-05-16T04:23:15.545Z,97515.94
2023-05-16T04:25:43.380Z,97526.38
2023-05-16T04:28:11.320Z,97493.41
2023-05-16T04:30:39.204Z,97508.69
2023-05-16T04:33:07.368Z,97547.41
2023-05-16T04:35:35.405Z,97561.72
2023-05-16T04:38:04.901Z,97574.88
2023-05-16T04:40:33.172Z,97589.78
2023-05-16T04:43:01.022Z,97622.94
2023-05-16T04:45:29.270Z,97647.81
2023-05-16T04:55:26.098Z,97678.06
2023-05-16T04:57:54.211Z,97694.31
2023-05-16T05:00:22.345Z,97696.94
2023-05-16T05:02:50.306Z,97725.50
2023-05-16T05:05:18.344Z,97749.78
2023-05-16T05:07:46.768Z,97752.59
2023-05-16T05:10:14.677Z,97758.69
2023-05-16T05:12:43.818Z,97762.81
2023-05-16T05:15:11.622Z,97773.03
2023-05-16T05:17:39.476Z,97785.50
2023-05-16T05:20:08.766Z,97806.50
2023-05-16T05:22:36.545Z,97821.47
2023-05-16T05:25:04.471Z,97833.97
2023-05-16T05:27:32.256Z,97835.09
2023-05-16T05:30:01.509Z,97845.97
2023-05-16T05:32:29.338Z,97867.16
2023-05-16T05:34:57.236Z,97882.28
2023-05-16T05:37:25.536Z,97878.31
2023-05-16T05:39:53.383Z,97872.13
2023-05-16T05:42:21.257Z,97864.53
2023-05-16T05:44:49.012Z,97867.69
2023-05-16T05:47:19.353Z,97864.53
2023-05-16T05:49:47.316Z,97870.31
2023-05-16T05:52:15.125Z,97877.34
2023-05-16T05:54:42.916Z,97867.50
2023-05-16T05:57:10.933Z,97850.03
2023-05-16T05:59:38.984Z,97862.22
2023-05-16T06:02:07.485Z,97876.97
2023-05-16T06:04:36.933Z,97882.75
2023-05-16T06:07:04.998Z,97898.53
2023-05-16T06:09:33.079Z,97894.75
2023-05-16T06:12:01.386Z,97891.69
2023-05-16T06:14:29.501Z,97897.25
2023-05-16T06:16:57.770Z,97906.09
2023-05-16T06:19:25.996Z,97914.63
2023-05-16T06:21:55.702Z,97936.03
2023-05-16T06:24:23.981Z,97933.31
2023-05-16T06:26:52.529Z,97945.63
2023-05-16T06:29:20.555Z,97953.66
2023-05-16T06:31:48.738Z,97964.16
2023-05-16T06:34:16.700Z,97970.97
2023-05-16T06:36:44.958Z,97985.78
2023-05-16T06:39:14.355Z,97997.81
2023-05-16T06:41:42.364Z,97985.56
2023-05-16T06:44:17.124Z,98012.25
2023-05-16T06:46:45.310Z,98010.00
2023-05-16T06:49:13.423Z,97998.75
2023-05-16T06:51:41.722Z,97989.44
2023-05-16T06:54:09.807Z,98025.63
2023-05-16T06:56:39.158Z,98005.38
2023-05-16T06:59:07.198Z,98008.25
2023-05-16T07:01:35.209Z,98027.00
2023-05-16T07:04:03.447Z,98021.22
2023-05-16T07:06:31.589Z,98039.25
2023-05-16T07:08:59.677Z,98033.56
2023-05-16T07:11:27.618Z,98050.19
2023-05-16T07:13:57.096Z,98038.53
2023-05-16T07:16:28.440Z,98037.75
2023-05-16T07:18:56.983Z,98021.59
2023-05-16T07:21:25.026Z,98034.19
2023-05-16T07:23:53.115Z,98036.66
2023-05-16T07:26:23.387Z,98022.88
2023-05-16T07:28:51.490Z,98029.53
2023-05-16T07:31:20.983Z,98035.69
2023-05-16T07:33:49.328Z,98036.63
2023-05-16T07:36:17.888Z,98052.69
2023-05-16T07:38:46.137Z,98044.56
2023-05-16T07:41:14.095Z,98054.22
2023-05-16T07:43:42.080Z,98043.00
2023-05-16T07:46:10.230Z,98035.91
2023-05-16T07:48:39.718Z,98029.72
2023-05-16T07:51:07.769Z,98026.63
2023-05-16T07:53:37.793Z,98022.34
2023-05-16T07:56:06.930Z,98031.69
2023-05-16T07:58:34.972Z,98035.34
2023-05-16T08:01:03.056Z,98047.84
2023-05-16T08:03:31.189Z,98039.66
2023-05-16T08:06:00.845Z,98042.72
2023-05-16T08:08:28.966Z,98019.81
2023-05-16T08:10:57.322Z,98017.91
2023-05-16T08:13:25.363Z,98025.47
2023-05-16T08:15:56.491Z,98034.41
2023-05-16T08:18:24.685Z,98031.34
2023-05-16T08:20:52.794Z,98024.91
2023-05-16T08:23:22.405Z,98016.13
2023-05-16T08:25:50.474Z,98016.63
2023-05-16T08:28:18.603Z,98017.00
2023-05-16T08:30:48.062Z,98042.50
2023-05-16T08:33:16.517Z,98037.06
2023-05-16T08:35:44.967Z,98018.38
2023-05-16T08:38:13.029Z,98029.31
2023-05-16T08:40:43.882Z,98004.53
2023-05-16T08:43:12.087Z,97987.69
2023-05-16T08:45:40.227Z,97987.06
2023-05-16T08:48:10.396Z,97986.91
2023-05-16T08:50:38.770Z,97974.47
2023-05-16T08:53:08.128Z,97985.88
2023-05-16T08:55:36.592Z,97963.47
2023-05-16T08:58:06.131Z,97973.84
2023-05-16T09:00:34.192Z,97962.81
2023-05-16T09:03:02.425Z,97954.91
2023-05-16T09:05:31.041Z,97956.31
2023-05-16T09:07:59.156Z,97932.94
2023-05-16T09:10:27.315Z,97910.56
2023-05-16T09:12:55.483Z,97884.94
2023-05-16T09:15:24.910Z,97872.78
2023-05-16T09:17:53.067Z,97864.88
2023-05-16T09:20:23.861Z,97851.38
2023-05-16T09:22:53.668Z,97870.47
2023-05-16T09:25:30.130Z,97873.75
2023-05-16T09:28:01.443Z,97861.25
2023-05-16T09:30:32.177Z,97847.59
2023-05-16T09:33:02.099Z,97834.63
2023-05-16T09:35:44.270Z,97824.88
2023-05-16T09:38:16.919Z,97818.22
2023-05-16T09:40:45.253Z,97779.84
2023-05-16T09:43:13.508Z,97787.50
2023-05-16T09:45:46.722Z,97779.78
2023-05-16T09:48:15.471Z,97768.47
2023-05-16T09:50:47.788Z,97757.22
2023-05-16T09:53:15.883Z,97744.03
2023-05-16T09:55:44.055Z,97724.09
2023-05-16T09:58:12.066Z,97735.06
2023-05-16T10:00:40.180Z,97717.63
2023-05-16T10:03:09.738Z,97700.31
2023-05-16T10:05:37.892Z,97694.09
2023-05-16T10:08:06.496Z,97686.19
2023-05-16T10:10:36.849Z,97666.59
2023-05-16T10:13:04.947Z,97670.38
2023-05-16T10:15:33.129Z,97675.84
2023-05-16T10:18:02.194Z,97672.94
2023-05-16T10:20:31.722Z,97645.03
2023-05-16T10:22:59.834Z,97631.34
2023-05-16T10:25:30.643Z,97616.94
2023-05-16T10:27:59.224Z,97606.56
2023-05-16T10:30:27.409Z,97601.81
2023-05-16T10:32:56.561Z,97604.31
2023-05-16T10:35:24.831Z,97589.56
2023-05-16T10:37:54.415Z,97597.19
2023-05-16T10:40:22.679Z,97596.13
2023-05-16T10:42:58.512Z,97604.69
2023-05-16T10:45:27.117Z,97615.56
2023-05-16T10:47:56.062Z,97606.81
2023-05-16T10:50:39.576Z,97629.91
2023-05-16T10:53:17.340Z,97624.53
2023-05-16T10:55:52.431Z,97614.28
2023-05-16T10:58:24.570Z,97620.72
2023-05-16T11:01:16.800Z,97596.66
2023-05-16T11:04:04.416Z,97612.25
2023-05-16T11:06:36.286Z,97608.97
2023-05-16T11:09:19.258Z,97589.69
2023-05-16T11:11:50.439Z,97576.38
2023-05-16T11:14:22.960Z,97570.75
2023-05-16T11:16:54.259Z,97568.13
2023-05-16T11:19:33.377Z,97544.91
2023-05-16T11:22:23.885Z,97548.75
2023-05-16T11:24:55.119Z,97552.56
2023-05-16T11:27:24.872Z,97535.78
2023-05-16T11:29:53.332Z,97517.34
2023-05-16T11:32:27.121Z,97506.22
2023-05-16T11:34:55.782Z,97513.41
2023-05-16T11:37:24.159Z,97510.13
2023-05-16T11:39:59.791Z,97514.84
2023-05-16T11:42:31.500Z,97520.56
2023-05-16T11:45:06.333Z,97524.94
2023-05-16T11:47:34.488Z,97524.16
2023-05-16T11:50:04.297Z,97525.38
2023-05-16T11:52:33.154Z,97528.91
2023-05-16T11:55:02.838Z,97537.34
2023-05-16T11:57:30.954Z,97544.72
2023-05-16T12:00:06.674Z,97561.56
2023-05-16T12:02:34.963Z,97566.41
2023-05-16T12:05:10.030Z,97574.69
2023-05-16T12:07:38.540Z,97568.66
2023-05-16T12:10:09.243Z,97573.34
2023-05-16T12:12:37.407Z,97585.56
2023-05-16T12:15:06.688Z,97584.78
2023-05-16T12:17:34.866Z,97587.50
2023-05-16T12:20:05.834Z,97578.31
2023-05-16T12:23:09.186Z,97567.41
2023-05-16T12:25:42.153Z,97546.03
2023-05-16T12:28:10.474Z,97537.56
2023-05-16T12:30:41.974Z,97544.75
2023-05-16T12:33:10.725Z,97532.66
2023-05-16T12:35:40.290Z,97535.13
2023-05-16T12:38:08.733Z,97539.94
2023-05-16T12:40:40.186Z,97547.28
2023-05-16T12:43:14.567Z,97553.75
2023-05-16T12:45:43.382Z,97547.44
2023-05-16T12:48:15.112Z,97560.09
2023-05-16T12:50:43.333Z,97560.94
2023-05-16T12:53:13.045Z,97567.66
2023-05-16T12:55:43.649Z,97566.81
2023-05-16T12:58:14.770Z,97570.09
2023-05-16T13:00:43.309Z,97570.25
2023-05-16T13:03:16.438Z,97582.31
2023-05-16T13:05:45.141Z,97595.47
2023-05-16T13:08:13.550Z,97595.13
2023-05-16T13:10:43.301Z,97586.53
2023-05-16T13:13:13.692Z,97590.09
2023-05-16T13:15:45.492Z,97587.81
2023-05-16T13:18:13.740Z,97591.25
2023-05-16T13:20:45.449Z,97590.97
2023-05-16T13:23:13.711Z,97591.03
2023-05-16T13:25:48.521Z,97585.25
2023-05-16T13:28:19.930Z,97586.63
2023-05-16T13:30:50.033Z,97596.59
2023-05-16T13:33:20.586Z,97586.09
2023-05-16T13:35:58.932Z,97592.16
2023-05-16T13:38:31.888Z,97579.47
2023-05-16T13:41:03.500Z,97578.59
2023-05-16T13:43:31.613Z,97586.06
2023-05-16T13:45:59.735Z,97588.47
2023-05-16T13:48:28.160Z,97577.81
2023-05-16T13:50:56.383Z,97575.25
2023-05-16T13:53:24.642Z,97574.78
2023-05-16T13:55:56.509Z,97574.06
2023-05-16T13:58:27.236Z,97572.25
2023-05-16T14:00:57.662Z,97573.78
2023-05-16T14:03:28.703Z,97578.75
2023-05-16T14:05:59.879Z,97574.84
2023-05-16T14:08:28.247Z,97573.31
2023-05-16T14:10:56.487Z,97574.13
2023-05-16T14:13:27.205Z,97582.25
2023-05-16T14:15:55.578Z,97576.78
2023-05-16T14:18:23.887Z,97584.56
2023-05-16T14:20:52.449Z,97573.72
2023-05-16T14:23:22.134Z,97565.47
2023-05-16T14:25:50.322Z,97558.22
2023-05-16T14:28:18.322Z,97554.63
2023-05-16T14:30:48.170Z,97559.38
2023-05-16T14:33:16.694Z,97562.81
2023-05-16T14:35:44.827Z,97566.28
2023-05-16T14:38:14.677Z,97569.09
2023-05-16T14:40:50.113Z,97569.31
2023-05-16T14:43:18.574Z,97571.31
2023-05-16T14:45:47.957Z,97562.97
2023-05-16T14:48:17.260Z,97563.28
2023-05-16T14:50:45.621Z,97568.47
2023-05-16T14:53:13.716Z,97556.16
2023-05-16T14:55:41.944Z,97560.50
2023-05-16T14:58:10.116Z,97561.28
2023-05-16T15:00:38.735Z,97556.38
2023-05-16T15:03:08.230Z,97548.31
2023-05-16T15:05:36.296Z,97538.31
2023-05-16T15:08:04.311Z,97539.94
2023-05-16T15:10:32.369Z,97535.59
2023-05-16T15:13:00.530Z,97535.22
2023-05-16T15:15:28.716Z,97523.56
2023-05-16T15:17:56.823Z,97524.66
2023-05-16T15:20:27.154Z,97521.69
2023-05-16T15:22:55.677Z,97508.56
2023-05-16T15:25:23.723Z,97510.50
2023-05-16T15:27:51.843Z,97500.22
2023-05-16T15:30:19.972Z,97499.41
2023-05-16T15:32:48.082Z,97505.84
2023-05-16T15:35:16.419Z,97501.59
2023-05-16T15:37:45.863Z,97501.66
2023-05-16T15:40:14.952Z,97496.47
2023-05-16T15:42:44.362Z,97495.03
2023-05-16T15:45:13.020Z,97501.41
2023-05-16T15:47:41.757Z,97494.13
2023-05-16T15:50:15.121Z,97492.91
2023-05-16T15:52:43.633Z,97502.94
2023-05-16T15:55:13.250Z,97486.44
2023-05-16T15:57:42.510Z,97478.47
2023-05-16T16:00:11.488Z,97478.19
2023-05-16T16:02:45.016Z,97465.06
2023-05-16T16:05:13.249Z,97465.16
2023-05-16T16:07:41.372Z,97459.81
2023-05-16T16:10:10.539Z,97452.63
2023-05-16T16:12:40.819Z,97445.38
2023-05-16T16:15:11.100Z,97450.66
2023-05-16T16:17:39.259Z,97446.94
2023-05-16T16:20:08.207Z,97449.47
2023-05-16T16:22:36.438Z,97450.31
2023-05-16T16:25:04.734Z,97458.09
2023-05-16T16:27:32.839Z,97463.31
2023-05-16T16:30:02.321Z,97480.81
2023-05-16T16:32:30.619Z,97489.09
2023-05-16T16:34:58.726Z,97491.09
2023-05-16T16:37:26.904Z,97481.94
2023-05-16T16:39:54.943Z,97473.63
2023-05-16T16:42:25.342Z,97472.44
2023-05-16T16:44:53.822Z,97482.91
2023-05-16T16:47:23.577Z,97472.13
2023-05-16T16:49:51.744Z,97468.63
2023-05-16T16:52:19.908Z,97468.81
2023-05-16T16:54:50.450Z,97479.53
2023-05-16T16:57:21.794Z,97480.69
2023-05-16T16:59:53.163Z,97479.66
2023-05-16T17:02:21.535Z,97486.28
2023-05-16T17:04:50.970Z,97499.28
2023-05-16T17:07:19.077Z,97503.22
2023-05-16T17:09:47.227Z,97509.63
2023-05-16T17:12:19.076Z,97511.03
2023-05-16T17:14:51.405Z,97524.66
2023-05-16T17:17:19.723Z,97515.41
2023-05-16T17:19:50.820Z,97510.13
2023-05-16T17:22:24.266Z,97505.59
2023-05-16T17:24:52.447Z,97508.66
2023-05-16T17:27:37.227Z,97509.31
2023-05-16T17:30:09.035Z,97517.69
2023-05-16T17:32:37.492Z,97504.66
2023-05-16T17:35:06.336Z,97499.63
2023-05-16T17:37:42.851Z,97504.75
2023-05-16T17:40:17.255Z,97507.00
2023-05-16T17:42:46.155Z,97507.66
2023-05-16T17:45:14.962Z,97517.75
2023-05-16T17:47:43.517Z,97511.56
2023-05-16T17:50:12.111Z,97504.91
2023-05-16T17:52:41.636Z,97518.84
2023-05-16T17:55:10.752Z,97519.84
2023-05-16T17:57:39.008Z,97516.31
2023-05-16T18:00:09.388Z,97509.41
2023-05-16T18:02:39.975Z,97513.56
2023-05-16T18:05:08.825Z,97509.78
2023-05-16T18:07:38.213Z,97508.13
2023-05-16T18:10:10.833Z,97509.78
2023-05-16T18:12:39.574Z,97506.91
2023-05-16T18:15:10.784Z,97507.75
2023-05-16T18:17:38.950Z,97498.84
2023-05-16T18:20:10.893Z,97495.41
2023-05-16T18:22:39.138Z,97481.75
2023-05-16T18:25:09.845Z,97480.22
2023-05-16T18:27:38.073Z,97464.41
2023-05-16T18:30:07.826Z,97455.91
2023-05-16T18:32:36.633Z,97449.19
2023-05-16T18:35:08.056Z,97459.13
2023-05-16T18:37:36.630Z,97468.50
2023-05-16T18:40:07.954Z,97466.38
2023-05-16T18:42:37.695Z,97490.03
2023-05-16T18:45:06.345Z,97500.19
2023-05-16T18:47:34.631Z,97518.00
2023-05-16T18:50:03.033Z,97515.94
2023-05-16T18:52:31.266Z,97525.97
2023-05-16T18:54:59.505Z,97535.41
2023-05-16T18:57:28.242Z,97538.72
2023-05-16T18:59:58.475Z,97535.94
2023-05-16T19:02:37.751Z,97547.13
2023-05-16T19:05:09.594Z,97552.03
2023-05-16T19:07:39.632Z,97550.66
2023-05-16T19:10:09.098Z,97549.41
2023-05-16T19:12:37.234Z,97550.34
2023-05-16T19:15:08.045Z,97558.75
2023-05-16T19:17:36.326Z,97563.22
2023-05-16T19:20:05.139Z,97568.59
2023-05-16T19:22:33.334Z,97587.13
2023-05-16T19:25:01.763Z,97599.78
2023-05-16T19:27:30.082Z,97597.78
2023-05-16T19:29:58.259Z,97599.84
2023-05-16T19:32:27.801Z,97609.81
2023-05-16T19:34:56.821Z,97608.13
2023-05-16T19:37:24.997Z,97613.50
2023-05-16T19:39:53.174Z,97616.38
2023-05-16T19:42:21.275Z,97616.28
2023-05-16T19:44:49.357Z,97619.84
2023-05-16T19:47:17.565Z,97626.38
2023-05-16T19:49:47.096Z,97630.97
2023-05-16T19:52:15.181Z,97646.50
2023-05-16T19:54:43.785Z,97649.59
2023-05-16T19:57:11.975Z,97643.69
2023-05-16T19:59:40.326Z,97643.66
2023-05-16T20:02:08.551Z,97655.44
2023-05-16T20:04:36.752Z,97663.75
2023-05-16T20:07:07.582Z,97668.00
2023-05-16T20:09:35.679Z,97664.22
2023-05-16T20:12:04.083Z,97665.19
2023-05-16T20:14:32.224Z,97674.00
2023-05-16T20:17:00.403Z,97683.31
2023-05-16T20:19:31.235Z,97682.50
2023-05-16T20:22:01.707Z,97684.06
2023-05-16T20:24:31.165Z,97688.44
2023-05-16T20:26:59.227Z,97688.66
2023-05-16T20:29:27.235Z,97706.19
2023-05-16T20:31:55.556Z,97710.00
2023-05-16T20:35:08.788Z,97712.59
2023-05-16T20:37:37.988Z,97712.91
2023-05-16T20:40:08.943Z,97731.25
2023-05-16T20:42:37.586Z,97729.00
2023-05-16T20:45:06.551Z,97733.06
2023-05-16T20:47:34.582Z,97731.44
2023-05-16T20:50:02.722Z,97739.38
2023-05-16T20:52:30.892Z,97737.22
2023-05-16T20:55:01.294Z,97731.16
2023-05-16T20:57:30.819Z,97727.69
2023-05-16T20:59:58.851Z,97732.78
2023-05-16T21:02:26.927Z,97732.31
2023-05-16T21:04:56.039Z,97735.81
2023-05-16T21:07:24.221Z,97741.16
2023-05-16T21:09:52.230Z,97736.50
2023-05-16T21:12:20.253Z,97732.94
2023-05-16T21:14:49.708Z,97729.72
2023-05-16T21:17:17.819Z,97729.44
2023-05-16T21:19:45.851Z,97724.47
2023-05-16T21:22:13.991Z,97728.50
2023-05-16T21:24:42.062Z,97722.00
2023-05-16T21:27:10.072Z,97723.44
2023-05-16T21:29:38.106Z,97722.94
2023-05-16T21:32:09.238Z,97724.44
2023-05-16T21:34:37.289Z,97725.84
2023-05-16T21:37:07.356Z,97719.91
2023-05-16T21:39:35.396Z,97720.84
2023-05-16T21:42:03.547Z,97718.44
2023-05-16T21:44:31.759Z,97723.22
2023-05-16T21:46:59.726Z,97731.00
2023-05-16T21:49:29.000Z,97735.13
2023-05-16T21:51:56.944Z,97731.31
2023-05-16T21:54:24.916Z,97729.16
2023-05-16T21:56:52.878Z,97737.50
2023-05-16T21:59:20.928Z,97747.38
2023-05-16T22:01:48.930Z,97763.66
2023-05-16T22:04:17.075Z,97776.75
2023-05-16T22:06:46.709Z,97776.00
2023-05-16T22:09:14.887Z,97776.03
2023-05-16T22:11:42.993Z,97787.38
2023-05-16T22:14:11.166Z,97779.91
2023-05-16T22:16:39.255Z,97773.22
2023-05-16T22:19:07.826Z,97769.84
2023-05-16T22:21:36.150Z,97769.53
2023-05-16T22:24:06.141Z,97764.06
2023-05-16T22:26:34.176Z,97763.41
2023-05-16T22:29:02.303Z,97756.84
2023-05-16T22:31:30.348Z,97758.25
2023-05-16T22:33:58.539Z,97753.75
2023-05-16T22:36:26.738Z,97757.28
2023-05-16T22:38:54.764Z,97763.63
2023-05-16T22:41:24.197Z,97763.72
2023-05-16T22:43:53.811Z,97762.38
2023-05-16T22:46:21.872Z,97774.44
2023-05-16T22:48:49.996Z,97766.84
2023-05-16T22:51:18.106Z,97776.53
2023-05-16T22:53:46.154Z,97767.59
2023-05-16T22:56:14.308Z,97770.00
2023-05-16T22:58:43.803Z,97767.28
2023-05-16T23:01:11.825Z,97777.41
2023-05-16T23:03:39.846Z,97787.84
2023-05-16T23:06:08.147Z,97794.88
2023-05-16T23:08:36.195Z,97793.13
2023-05-16T23:11:04.261Z,97794.81
2023-05-16T23:13:32.277Z,97789.72
2023-05-16T23:16:01.785Z,97797.13
2023-05-16T23:18:29.902Z,97795.22
2023-05-16T23:20:58.075Z,97798.22
2023-05-16T23:23:26.184Z,97777.03
2023-05-16T23:25:54.477Z,97788.78
2023-05-16T23:28:22.690Z,97784.47
2023-05-16T23:30:51.313Z,97787.22
2023-05-16T23:33:20.801Z,97791.72
2023-05-16T23:35:48.985Z,97790.13
2023-05-16T23:38:17.039Z,97799.69
2023-05-16T23:40:45.069Z,97810.09
2023-05-16T23:43:13.022Z,97809.13
2023-05-16T23:45:41.077Z,97820.97
2023-05-16T23:48:09.706Z,97827.59
2023-05-16T23:50:39.130Z,97830.56
2023-05-16T23:53:07.180Z,97834.41
2023-05-16T23:55:35.334Z,97834.34
2023-05-16T23:58:03.992Z,97841.88
